createdAt,value
2022-09-24T00:00:00.845Z,3.17
2022-09-24T00:02:29.111Z,2.60
2022-09-24T00:04:58.729Z,3.00
2022-09-24T00:07:27.379Z,2.87
2022-09-24T00:09:55.675Z,3.17
2022-09-24T00:12:24.282Z,2.70
2022-09-24T00:14:52.588Z,2.67
2022-09-24T00:17:22.160Z,3.67
2022-09-24T00:19:51.287Z,3.13
2022-09-24T00:22:19.564Z,5.23
2022-09-24T00:25:05.594Z,4.40
2022-09-24T00:27:34.151Z,3.10
2022-09-24T00:30:02.531Z,3.00
2022-09-24T00:32:32.097Z,6.03
2022-09-24T00:35:01.212Z,3.07
2022-09-24T00:37:29.878Z,2.70
2022-09-24T00:39:58.712Z,3.07
2022-09-24T00:42:28.714Z,3.37
2022-09-24T00:44:57.795Z,4.27
2022-09-24T00:47:39.639Z,4.37
2022-09-24T00:50:18.922Z,3.87
2022-09-24T00:52:54.158Z,6.23
2022-09-24T00:55:24.863Z,2.77
2022-09-24T00:58:03.371Z,5.20
2022-09-24T01:00:32.048Z,2.87
2022-09-24T01:03:07.670Z,2.97
2022-09-24T01:05:38.537Z,3.00
2022-09-24T01:08:08.552Z,2.73
2022-09-24T01:10:52.292Z,3.67
2022-09-24T01:13:43.640Z,3.13
2022-09-24T01:16:29.171Z,2.60
2022-09-24T01:19:19.397Z,3.63
2022-09-24T01:21:54.056Z,2.70
2022-09-24T01:24:52.205Z,2.30
2022-09-24T01:27:29.929Z,4.57
2022-09-24T01:30:07.493Z,2.83
2022-09-24T01:32:42.275Z,3.37
2022-09-24T01:35:21.468Z,5.80
2022-09-24T01:37:56.931Z,3.10
2022-09-24T01:40:29.487Z,4.03
2022-09-24T01:43:00.820Z,3.97
2022-09-24T01:45:34.277Z,4.60
2022-09-24T01:48:05.497Z,4.53
2022-09-24T01:50:47.671Z,3.77
2022-09-24T01:53:22.939Z,3.20
2022-09-24T01:56:01.503Z,5.60
2022-09-24T01:58:38.862Z,5.07
2022-09-24T02:01:15.047Z,5.57
2022-09-24T02:03:53.491Z,3.07
2022-09-24T02:06:32.228Z,3.00
2022-09-24T02:09:00.490Z,3.50
2022-09-24T02:11:33.504Z,4.47
2022-09-24T02:14:09.406Z,3.50
2022-09-24T02:16:45.948Z,3.40
2022-09-24T02:19:20.444Z,2.57
2022-09-24T02:21:52.015Z,2.60
2022-09-24T02:24:26.910Z,3.47
2022-09-24T02:26:55.737Z,4.13
2022-09-24T02:29:24.594Z,3.57
2022-09-24T02:31:58.021Z,6.37
2022-09-24T02:34:35.397Z,2.63
2022-09-24T02:37:08.845Z,4.13
2022-09-24T02:39:37.738Z,3.30
2022-09-24T02:42:09.322Z,3.50
2022-09-24T02:44:38.523Z,4.77
2022-09-24T02:47:08.939Z,4.57
2022-09-24T02:49:37.258Z,4.97
2022-09-24T02:52:06.441Z,4.63
2022-09-24T02:54:34.725Z,3.23
2022-09-24T02:57:03.017Z,2.50
2022-09-24T02:59:31.805Z,3.60
2022-09-24T03:02:00.138Z,2.60
2022-09-24T03:04:31.785Z,3.83
2022-09-24T03:07:00.254Z,2.70
2022-09-24T03:09:29.061Z,4.00
2022-09-24T03:12:00.901Z,4.23
2022-09-24T03:14:29.767Z,3.10
2022-09-24T03:16:58.085Z,3.10
2022-09-24T03:19:26.885Z,3.37
2022-09-24T03:21:56.657Z,4.73
2022-09-24T03:24:24.994Z,3.40
2022-09-24T03:26:54.092Z,5.20
2022-09-24T03:29:42.341Z,6.87
2022-09-24T03:32:10.222Z,4.37
2022-09-24T03:34:39.018Z,5.37
2022-09-24T03:37:08.670Z,6.97
2022-09-24T03:39:37.754Z,4.90
2022-09-24T03:42:06.077Z,4.47
2022-09-24T03:44:34.351Z,3.17
2022-09-24T03:47:03.161Z,3.73
2022-09-24T03:49:31.754Z,4.53
2022-09-24T03:52:00.005Z,5.37
2022-09-24T03:54:30.185Z,6.00
2022-09-24T03:56:58.967Z,4.07
2022-09-24T03:59:27.221Z,3.73
2022-09-24T04:01:56.199Z,3.53
2022-09-24T04:04:24.820Z,5.00
2022-09-24T04:06:53.149Z,3.80
2022-09-24T04:09:21.398Z,5.87
2022-09-24T04:11:52.751Z,4.50
2022-09-24T04:14:22.482Z,6.13
2022-09-24T04:16:50.939Z,3.63
2022-09-24T04:19:19.669Z,3.30
2022-09-24T04:21:48.498Z,4.03
2022-09-24T04:24:16.985Z,4.40
2022-09-24T04:26:45.496Z,4.97
2022-09-24T04:29:15.869Z,7.03
2022-09-24T04:31:44.199Z,4.27
2022-09-24T04:34:12.674Z,5.77
2022-09-24T04:36:41.533Z,4.30
2022-09-24T04:39:10.104Z,4.03
2022-09-24T04:41:40.043Z,4.10
2022-09-24T04:44:08.921Z,3.23
2022-09-24T04:46:40.256Z,2.63
2022-09-24T04:49:10.210Z,4.50
2022-09-24T04:51:39.151Z,4.73
2022-09-24T04:54:07.462Z,3.13
2022-09-24T04:56:35.794Z,3.53
2022-09-24T04:59:04.600Z,3.13
2022-09-24T05:01:33.014Z,5.07
2022-09-24T05:04:03.487Z,6.00
2022-09-24T05:06:31.792Z,5.03
2022-09-24T05:09:00.616Z,3.07
2022-09-24T05:11:29.547Z,2.70
2022-09-24T05:13:57.842Z,4.07
2022-09-24T05:16:26.167Z,2.97
2022-09-24T05:18:55.398Z,4.23
2022-09-24T05:21:25.326Z,4.17
2022-09-24T05:23:53.588Z,5.77
2022-09-24T05:26:39.390Z,3.70
2022-09-24T05:29:07.720Z,4.10
2022-09-24T05:31:36.769Z,3.60
2022-09-24T05:34:05.478Z,4.03
2022-09-24T05:36:35.604Z,3.50
2022-09-24T05:39:04.914Z,3.00
2022-09-24T05:41:33.309Z,6.07
2022-09-24T05:44:02.643Z,2.50
2022-09-24T05:46:31.221Z,3.03
2022-09-24T05:49:00.302Z,3.40
2022-09-24T05:51:29.438Z,3.80
2022-09-24T05:53:59.252Z,4.23
2022-09-24T05:56:27.620Z,3.07
2022-09-24T05:58:56.150Z,2.87
2022-09-24T06:01:24.757Z,3.40
2022-09-24T06:03:53.183Z,2.83
2022-09-24T06:06:22.305Z,1.93
2022-09-24T06:08:50.573Z,2.23
2022-09-24T06:11:21.419Z,2.67
2022-09-24T06:13:50.976Z,4.83
2022-09-24T06:16:19.805Z,4.97
2022-09-24T06:18:48.827Z,4.57
2022-09-24T06:21:18.703Z,3.77
2022-09-24T06:23:46.978Z,4.10
2022-09-24T06:26:15.586Z,4.73
2022-09-24T06:28:45.358Z,4.17
2022-09-24T06:31:13.708Z,4.73
2022-09-24T06:33:43.057Z,5.40
2022-09-24T06:36:11.493Z,3.23
2022-09-24T06:38:40.580Z,4.77
2022-09-24T06:41:10.236Z,3.97
2022-09-24T06:43:39.226Z,4.90
2022-09-24T06:46:10.279Z,3.33
2022-09-24T06:48:39.681Z,4.13
2022-09-24T06:51:08.498Z,5.67
2022-09-24T06:53:36.908Z,4.87
2022-09-24T06:56:06.224Z,4.53
2022-09-24T06:58:34.775Z,3.97
2022-09-24T07:01:04.307Z,3.87
2022-09-24T07:03:35.200Z,5.43
2022-09-24T07:06:06.815Z,4.30
2022-09-24T07:08:35.810Z,3.43
2022-09-24T07:11:04.296Z,5.53
2022-09-24T07:13:32.554Z,4.80
2022-09-24T07:16:02.227Z,6.83
2022-09-24T07:18:30.895Z,4.23
2022-09-24T07:21:01.032Z,4.53
2022-09-24T07:23:29.741Z,4.30
2022-09-24T07:25:58.728Z,4.00
2022-09-24T07:28:27.456Z,4.83
2022-09-24T07:31:00.821Z,3.10
2022-09-24T07:33:32.764Z,5.60
2022-09-24T07:36:07.685Z,2.67
2022-09-24T07:38:36.826Z,6.63
2022-09-24T07:41:06.121Z,4.17
2022-09-24T07:43:34.703Z,4.20
2022-09-24T07:46:03.108Z,2.87
2022-09-24T07:48:31.413Z,4.53
2022-09-24T07:51:00.545Z,6.00
2022-09-24T07:53:31.263Z,5.27
2022-09-24T07:56:01.088Z,4.27
2022-09-24T07:58:29.977Z,3.93
2022-09-24T08:00:59.655Z,4.33
2022-09-24T08:03:28.304Z,4.10
2022-09-24T08:05:58.684Z,3.63
2022-09-24T08:08:27.435Z,3.87
2022-09-24T08:10:57.923Z,4.20
2022-09-24T08:13:27.835Z,3.10
2022-09-24T08:16:00.265Z,5.00
2022-09-24T08:18:31.640Z,5.43
2022-09-24T08:21:04.097Z,3.60
2022-09-24T08:23:33.395Z,4.23
2022-09-24T08:26:03.291Z,3.10
2022-09-24T08:28:32.415Z,3.13
2022-09-24T08:31:02.496Z,3.90
2022-09-24T08:33:33.725Z,4.03
2022-09-24T08:36:04.588Z,3.83
2022-09-24T08:38:33.015Z,4.70
2022-09-24T08:41:20.113Z,6.03
2022-09-24T08:43:58.128Z,4.90
2022-09-24T08:46:50.919Z,3.53
2022-09-24T08:49:29.104Z,4.63
2022-09-24T08:52:14.624Z,4.33
2022-09-24T08:54:46.261Z,4.10
2022-09-24T08:57:20.797Z,3.63
2022-09-24T08:59:53.945Z,3.67
2022-09-24T09:02:48.965Z,5.33
2022-09-24T09:05:28.109Z,3.40
2022-09-24T09:08:33.891Z,4.57
2022-09-24T09:11:04.425Z,3.80
2022-09-24T09:13:40.887Z,4.57
2022-09-24T09:16:22.840Z,5.73
2022-09-24T09:18:57.069Z,3.93
2022-09-24T09:21:37.957Z,4.10
2022-09-24T09:24:17.139Z,4.07
2022-09-24T09:26:51.784Z,3.60
2022-09-24T09:29:23.978Z,3.80
2022-09-24T09:32:02.908Z,6.47
2022-09-24T09:34:53.192Z,3.67
2022-09-24T09:37:31.075Z,10.17
2022-09-24T09:40:27.644Z,3.93
2022-09-24T09:43:04.058Z,3.60
2022-09-24T09:45:43.076Z,4.47
2022-09-24T09:48:16.439Z,3.13
2022-09-24T09:50:48.895Z,3.60
2022-09-24T09:53:22.066Z,5.40
2022-09-24T09:55:57.492Z,4.87
2022-09-24T09:58:28.807Z,4.43
2022-09-24T10:01:09.890Z,3.10
2022-09-24T10:03:50.528Z,4.37
2022-09-24T10:06:27.273Z,4.20
2022-09-24T10:09:08.287Z,3.90
2022-09-24T10:11:36.646Z,5.33
2022-09-24T10:14:06.135Z,3.80
2022-09-24T10:16:41.023Z,4.73
2022-09-24T10:19:20.816Z,4.23
2022-09-24T10:21:52.226Z,4.37
2022-09-24T10:24:24.301Z,5.60
2022-09-24T10:26:54.324Z,5.87
2022-09-24T10:29:44.371Z,5.87
2022-09-24T10:32:20.388Z,7.20
2022-09-24T10:34:57.456Z,6.17
2022-09-24T10:37:26.870Z,5.40
2022-09-24T10:40:00.948Z,5.60
2022-09-24T10:42:31.832Z,5.27
2022-09-24T10:45:03.512Z,5.13
2022-09-24T10:47:47.981Z,5.40
2022-09-24T10:50:31.567Z,4.80
2022-09-24T10:53:08.718Z,4.80
2022-09-24T10:55:54.084Z,4.03
2022-09-24T10:58:49.092Z,4.93
2022-09-24T11:01:27.860Z,4.03
2022-09-24T11:04:41.096Z,4.60
2022-09-24T11:07:45.981Z,3.50
2022-09-24T11:10:37.074Z,3.07
2022-09-24T11:13:23.334Z,2.73
2022-09-24T11:16:22.073Z,2.77
2022-09-24T11:19:02.205Z,3.17
2022-09-24T11:21:46.495Z,2.80
2022-09-24T11:24:46.521Z,3.73
2022-09-24T11:27:44.548Z,3.03
2022-09-24T11:30:17.371Z,3.33
2022-09-24T11:33:05.494Z,2.60
2022-09-24T11:36:05.499Z,3.57
2022-09-24T11:39:03.765Z,4.40
2022-09-24T11:41:49.716Z,4.77
2022-09-24T11:45:01.944Z,4.23
2022-09-24T11:47:55.832Z,4.13
2022-09-24T11:50:47.896Z,3.90
2022-09-24T11:53:30.700Z,5.20
2022-09-24T11:56:12.285Z,4.77
2022-09-24T11:58:50.227Z,3.80
2022-09-24T12:01:23.947Z,4.57
2022-09-24T12:04:03.232Z,4.67
2022-09-24T12:06:42.143Z,3.33
2022-09-24T12:09:22.235Z,3.63
2022-09-24T12:11:57.783Z,4.50
2022-09-24T12:14:32.937Z,4.03
2022-09-24T12:17:09.038Z,3.30
2022-09-24T12:19:48.275Z,5.10
2022-09-24T12:22:21.897Z,2.70
2022-09-24T12:24:57.971Z,3.53
2022-09-24T12:27:35.180Z,3.20
2022-09-24T12:30:46.141Z,2.93
2022-09-24T12:33:23.903Z,2.90
2022-09-24T12:36:05.415Z,2.90
2022-09-24T12:38:42.406Z,3.57
2022-09-24T12:41:27.453Z,3.00
2022-09-24T12:44:03.739Z,4.47
2022-09-24T12:46:41.567Z,4.70
2022-09-24T12:49:31.953Z,4.73
2022-09-24T12:52:05.072Z,4.83
2022-09-24T12:54:37.923Z,6.37
2022-09-24T12:57:11.066Z,6.10
2022-09-24T12:59:59.096Z,4.00
2022-09-24T13:02:31.244Z,4.20
2022-09-24T13:05:27.134Z,6.33
2022-09-24T13:08:00.492Z,4.83
2022-09-24T13:10:37.559Z,4.83
2022-09-24T13:13:26.594Z,4.23
2022-09-24T13:16:04.293Z,6.87
2022-09-24T13:18:37.012Z,4.20
2022-09-24T13:21:09.093Z,4.83
2022-09-24T13:23:49.605Z,5.53
2022-09-24T13:26:34.692Z,5.13
2022-09-24T13:29:05.706Z,4.93
2022-09-24T13:31:47.719Z,5.07
2022-09-24T13:34:25.708Z,9.00
2022-09-24T13:37:01.383Z,6.50
2022-09-24T13:39:38.091Z,5.07
2022-09-24T13:42:20.870Z,8.20
2022-09-24T13:44:56.793Z,5.67
2022-09-24T13:47:36.213Z,6.83
2022-09-24T13:50:16.002Z,5.50
2022-09-24T13:52:50.923Z,5.63
2022-09-24T13:55:25.599Z,7.40
2022-09-24T13:57:56.169Z,6.30
2022-09-24T14:00:27.504Z,5.20
2022-09-24T14:03:03.138Z,6.93
2022-09-24T14:05:36.776Z,6.17
2022-09-24T14:08:09.548Z,6.53
2022-09-24T14:10:39.943Z,5.63
2022-09-24T14:13:21.722Z,5.83
2022-09-24T14:15:57.143Z,6.43
2022-09-24T14:18:27.710Z,7.37
2022-09-24T14:21:04.100Z,6.63
2022-09-24T14:23:39.755Z,6.50
2022-09-24T14:26:15.510Z,6.97
2022-09-24T14:28:45.551Z,6.40
2022-09-24T14:31:14.002Z,6.27
2022-09-24T14:33:42.842Z,6.57
2022-09-24T14:36:14.134Z,6.73
2022-09-24T14:38:57.395Z,6.90
2022-09-24T14:41:31.138Z,7.43
2022-09-24T14:44:07.802Z,6.50
2022-09-24T14:46:48.709Z,8.93
2022-09-24T14:49:22.886Z,9.33
2022-09-24T14:51:57.080Z,6.90
2022-09-24T14:54:34.078Z,7.07
2022-09-24T14:57:24.311Z,7.50
2022-09-24T14:59:54.287Z,8.47
2022-09-24T15:02:30.572Z,9.43
2022-09-24T15:05:06.461Z,7.30
2022-09-24T15:07:37.325Z,7.80
2022-09-24T15:10:07.096Z,8.63
2022-09-24T15:12:44.128Z,6.50
2022-09-24T15:15:31.981Z,7.87
2022-09-24T15:18:00.363Z,6.37
2022-09-24T15:20:29.164Z,6.37
2022-09-24T15:22:57.617Z,11.33
2022-09-24T15:25:26.234Z,9.10
2022-09-24T15:27:54.759Z,8.10
2022-09-24T15:30:24.339Z,6.27
2022-09-24T15:32:53.939Z,6.87
2022-09-24T15:35:22.257Z,8.57
2022-09-24T15:37:50.696Z,8.43
2022-09-24T15:40:24.684Z,9.13
2022-09-24T15:42:53.699Z,13.37
2022-09-24T15:45:24.458Z,13.17
2022-09-24T15:47:54.901Z,10.57
2022-09-24T15:50:24.870Z,8.47
2022-09-24T15:52:58.303Z,8.50
2022-09-24T15:55:26.775Z,8.10
2022-09-24T15:57:55.359Z,8.80
2022-09-24T16:00:26.123Z,9.83
2022-09-24T16:02:58.272Z,10.23
2022-09-24T16:05:27.685Z,11.40
2022-09-24T16:07:55.929Z,9.50
2022-09-24T16:10:24.528Z,10.70
2022-09-24T16:12:52.866Z,11.60
2022-09-24T16:15:21.950Z,10.03
2022-09-24T16:17:50.818Z,11.37
2022-09-24T16:20:21.180Z,12.13
2022-09-24T16:22:50.200Z,13.00
2022-09-24T16:25:18.996Z,14.40
2022-09-24T16:27:47.253Z,13.43
2022-09-24T16:30:15.881Z,12.17
2022-09-24T16:32:44.237Z,12.67
2022-09-24T16:35:13.280Z,12.83
2022-09-24T16:37:43.358Z,13.53
2022-09-24T16:40:12.352Z,12.50
2022-09-24T16:42:41.207Z,12.53
2022-09-24T16:45:12.393Z,16.53
2022-09-24T16:47:40.660Z,14.07
2022-09-24T16:50:10.507Z,13.73
2022-09-24T16:52:38.810Z,15.67
2022-09-24T16:55:10.561Z,14.97
2022-09-24T16:57:40.039Z,13.17
2022-09-24T17:00:11.593Z,14.60
2022-09-24T17:02:40.248Z,13.37
2022-09-24T17:05:09.631Z,16.50
2022-09-24T17:07:38.027Z,16.37
2022-09-24T17:10:13.412Z,15.73
2022-09-24T17:12:43.784Z,15.83
2022-09-24T17:15:12.929Z,18.40
2022-09-24T17:17:48.568Z,19.67
2022-09-24T17:20:20.150Z,18.53
2022-09-24T17:22:49.737Z,24.13
2022-09-24T17:25:19.339Z,19.13
2022-09-24T17:27:47.588Z,18.73
2022-09-24T17:30:16.811Z,15.43
2022-09-24T17:32:45.373Z,17.27
2022-09-24T17:35:14.764Z,16.13
2022-09-24T17:37:44.620Z,16.53
2022-09-24T17:40:13.331Z,17.57
2022-09-24T17:42:45.766Z,17.33
2022-09-24T17:45:14.366Z,16.27
2022-09-24T17:47:57.701Z,19.43
2022-09-24T17:50:26.329Z,15.47
2022-09-24T17:52:55.536Z,16.50
2022-09-24T17:55:24.530Z,16.93
2022-09-24T17:57:54.717Z,16.00
2022-09-24T18:00:23.426Z,18.93
2022-09-24T18:02:54.912Z,16.40
2022-09-24T18:05:23.781Z,19.93
2022-09-24T18:07:52.348Z,19.50
2022-09-24T18:10:21.271Z,16.77
2022-09-24T18:12:49.897Z,18.87
2022-09-24T18:15:19.908Z,19.07
2022-09-24T18:17:48.673Z,18.57
2022-09-24T18:20:17.105Z,16.10
2022-09-24T18:22:45.490Z,16.67
2022-09-24T18:25:14.640Z,16.00
2022-09-24T18:27:46.414Z,17.30
2022-09-24T18:30:16.097Z,16.53
2022-09-24T18:32:47.444Z,18.43
2022-09-24T18:35:16.214Z,18.50
2022-09-24T18:37:44.523Z,18.00
2022-09-24T18:40:13.376Z,18.43
2022-09-24T18:42:41.694Z,17.00
2022-09-24T18:45:11.413Z,17.30
2022-09-24T18:47:40.111Z,18.30
2022-09-24T18:50:11.186Z,17.53
2022-09-24T18:52:40.016Z,19.00
2022-09-24T18:55:10.371Z,19.03
2022-09-24T18:57:39.164Z,18.57
2022-09-24T19:00:30.153Z,18.43
2022-09-24T19:02:59.764Z,20.07
2022-09-24T19:05:30.079Z,16.30
2022-09-24T19:07:59.192Z,18.50
2022-09-24T19:10:27.542Z,19.23
2022-09-24T19:12:56.777Z,21.17
2022-09-24T19:15:26.091Z,18.77
2022-09-24T19:17:54.397Z,19.53
2022-09-24T19:20:23.528Z,20.77
2022-09-24T19:23:00.068Z,20.27
2022-09-24T19:25:33.355Z,20.90
2022-09-24T19:28:03.215Z,23.17
2022-09-24T19:30:32.097Z,23.73
2022-09-24T19:33:00.887Z,22.93
2022-09-24T19:35:29.154Z,23.87
2022-09-24T19:37:58.779Z,26.30
2022-09-24T19:40:27.408Z,21.60
2022-09-24T19:42:56.065Z,20.03
2022-09-24T19:45:25.529Z,22.77
2022-09-24T19:47:54.459Z,22.20
2022-09-24T19:50:23.285Z,21.30
2022-09-24T19:52:52.072Z,20.60
2022-09-24T19:55:28.498Z,20.07
2022-09-24T19:57:57.667Z,17.97
2022-09-24T20:00:26.228Z,18.07
2022-09-24T20:02:54.573Z,17.90
2022-09-24T20:05:22.851Z,17.43
2022-09-24T20:07:51.158Z,18.07
2022-09-24T20:10:20.510Z,15.37
2022-09-24T20:12:51.816Z,15.90
2022-09-24T20:15:20.825Z,16.17
2022-09-24T20:17:49.600Z,15.50
2022-09-24T20:20:18.628Z,14.13
2022-09-24T20:22:46.875Z,17.80
2022-09-24T20:25:15.415Z,16.07
2022-09-24T20:27:51.880Z,15.07
2022-09-24T20:30:23.861Z,16.03
2022-09-24T20:32:52.205Z,16.13
2022-09-24T20:35:20.864Z,15.40
2022-09-24T20:37:49.851Z,16.67
2022-09-24T20:40:18.848Z,12.83
2022-09-24T20:42:47.398Z,15.33
2022-09-24T20:45:16.202Z,14.50
2022-09-24T20:47:49.872Z,17.27
2022-09-24T20:50:19.133Z,16.73
2022-09-24T20:52:47.470Z,13.80
2022-09-24T20:55:16.320Z,15.40
2022-09-24T20:57:45.358Z,14.60
2022-09-24T21:00:15.162Z,15.87
2022-09-24T21:02:44.965Z,15.03
2022-09-24T21:05:13.325Z,14.47
2022-09-24T21:07:42.670Z,13.20
2022-09-24T21:10:13.537Z,15.37
2022-09-24T21:12:41.810Z,14.17
2022-09-24T21:15:13.770Z,16.17
2022-09-24T21:17:54.714Z,16.80
2022-09-24T21:20:34.153Z,15.17
2022-09-24T21:23:02.524Z,14.50
2022-09-24T21:25:53.391Z,13.67
2022-09-24T21:28:21.896Z,12.27
2022-09-24T21:30:59.767Z,14.20
2022-09-24T21:33:28.439Z,13.37
2022-09-24T21:36:01.512Z,14.30
2022-09-24T21:38:30.293Z,11.93
2022-09-24T21:41:01.201Z,11.07
2022-09-24T21:43:34.622Z,14.73
2022-09-24T21:46:06.460Z,11.60
2022-09-24T21:48:36.096Z,11.90
2022-09-24T21:51:09.030Z,11.33
2022-09-24T21:53:38.760Z,11.40
2022-09-24T21:56:07.913Z,12.33
2022-09-24T21:58:36.908Z,11.73
2022-09-24T22:01:15.737Z,11.53
2022-09-24T22:03:46.714Z,11.30
2022-09-24T22:06:16.630Z,11.87
2022-09-24T22:08:47.380Z,10.43
2022-09-24T22:11:17.124Z,11.87
2022-09-24T22:13:46.130Z,13.33
2022-09-24T22:16:14.936Z,11.77
2022-09-24T22:18:43.218Z,12.00
2022-09-24T22:21:15.341Z,12.03
2022-09-24T22:23:45.250Z,11.60
2022-09-24T22:26:14.839Z,11.57
2022-09-24T22:28:43.871Z,13.77
2022-09-24T22:31:15.716Z,17.17
2022-09-24T22:34:02.392Z,12.27
2022-09-24T22:36:35.265Z,12.13
2022-09-24T22:39:07.146Z,11.00
2022-09-24T22:41:39.776Z,12.10
2022-09-24T22:44:09.074Z,9.83
2022-09-24T22:46:39.436Z,10.63
2022-09-24T22:49:09.121Z,11.07
2022-09-24T22:51:38.422Z,10.30
2022-09-24T22:54:09.711Z,13.07
2022-09-24T22:56:39.075Z,10.47
2022-09-24T22:59:07.909Z,11.50
2022-09-24T23:01:41.896Z,12.13
2022-09-24T23:04:13.296Z,11.83
2022-09-24T23:06:42.226Z,10.90
2022-09-24T23:09:11.976Z,11.57
2022-09-24T23:11:41.202Z,12.27
2022-09-24T23:14:15.242Z,11.67
2022-09-24T23:16:44.301Z,11.53
2022-09-24T23:19:16.519Z,11.73
2022-09-24T23:21:45.670Z,11.83
2022-09-24T23:24:17.757Z,11.80
2022-09-24T23:26:47.107Z,12.60
2022-09-24T23:29:16.213Z,10.77
2022-09-24T23:31:44.710Z,12.13
2022-09-24T23:34:14.593Z,9.97
2022-09-24T23:36:45.048Z,11.03
2022-09-24T23:39:15.082Z,11.63
2022-09-24T23:41:43.464Z,11.33
2022-09-24T23:44:11.942Z,11.10
2022-09-24T23:46:40.293Z,12.90
2022-09-24T23:49:09.627Z,11.53
2022-09-24T23:51:38.710Z,11.67
2022-09-24T23:54:07.725Z,13.97
2022-09-24T23:56:37.968Z,11.70
2022-09-24T23:59:07.119Z,12.00
